Ruili, China
Current Conditions -  °F | °C
As of 8:30 AM on Thursday 18 Dec 2014 (Local Time) from VYMD Reporting Station
Broken Clouds Broken Clouds  
Wind Chill: 61°   Ceiling: 12000
Heat Index: 61°   Visibility: 4mi
Dew Point: 57°   Wind: 0mph
Humidity: 88%   Direction: NA
Pressure: 29.97"   Gusts: NA
Location:  24.02°N, 97.83°E
Report Text: VYMD 180030Z 00000KT 6000 SCT025 BKN120 16/14 Q1015
Loading
Personal Weather Stations






























Interactive Weather Map New forecast layout! Learn more

10-Day Weather Forecast

Advertisements
Track Severe Weather on mobile